Pagrindinis puslapis
METAR-TAF:

METAR-TAF

Oro uostai :

Bückeburg, Vokietija

platuma: 52-17N, ilguma: 009-05E, Aukštis: 70 m

Dabartinis oras

Ataskaita buvo paskelbta 34 minutes, ne 00:20 UTC
Vėjas 5 kt iš Vakarų/Šiaurės Vakarų
Temperatūra 4°C
Drėgmė 81%
Slėgis 1022 hPa
Matomumas: 6000 m

METAR: ETHB 290020Z AUTO 30005KT 6000 // ////// 04/01 Q1022 ///

Laikas: 01:54 (00:54 UTC)


TAF: trūkstamas

Orai ataskaitas ir orų prognozės (METAR, TAF).

turimą stotys yra geltonos ir raudonos taškus žemėlapyje.

Perkelti pele per norėdami pamatyti stoties vardą.

Tada spustelėkite, norėdami matyti oro stebėjimo ir prognozės.

Norėdami pakeisti žemėlapį: spustelėkite ant žalios mygtukų su juodo kryžiaus žemyn,; žalią mygtuką su brūkšneliu, jei norite nutolinti; arba žalių rodyklių gretimoms žemėlapius.


METAR-TAF: